sensor_id;sensor_type;location;lat;lon;timestamp;P1;durP1;ratioP1;P2;durP2;ratioP2
25497;SDS011;13406;53.380;7.226;2022-11-13T00:02:05;12.33;;;10.77;;
25497;SDS011;13406;53.380;7.226;2022-11-13T00:04:31;12.30;;;11.00;;
25497;SDS011;13406;53.380;7.226;2022-11-13T00:06:56;14.57;;;11.47;;
25497;SDS011;13406;53.380;7.226;2022-11-13T00:09:22;14.03;;;11.77;;
25497;SDS011;13406;53.380;7.226;2022-11-13T00:11:47;12.03;;;10.83;;
25497;SDS011;13406;53.380;7.226;2022-11-13T00:14:13;14.23;;;11.30;;
25497;SDS011;13406;53.380;7.226;2022-11-13T00:16:38;11.37;;;10.10;;
25497;SDS011;13406;53.380;7.226;2022-11-13T00:19:04;14.37;;;12.07;;
25497;SDS011;13406;53.380;7.226;2022-11-13T00:21:29;12.43;;;10.50;;
25497;SDS011;13406;53.380;7.226;2022-11-13T00:23:55;13.60;;;9.80;;
25497;SDS011;13406;53.380;7.226;2022-11-13T00:26:21;11.70;;;9.47;;
25497;SDS011;13406;53.380;7.226;2022-11-13T00:28:55;11.60;;;8.93;;
25497;SDS011;13406;53.380;7.226;2022-11-13T00:31:25;11.90;;;10.40;;
25497;SDS011;13406;53.380;7.226;2022-11-13T00:33:50;11.63;;;10.00;;
25497;SDS011;13406;53.380;7.226;2022-11-13T00:36:18;12.90;;;10.40;;
25497;SDS011;13406;53.380;7.226;2022-11-13T00:38:47;11.10;;;9.63;;
25497;SDS011;13406;53.380;7.226;2022-11-13T00:41:13;11.13;;;9.60;;
25497;SDS011;13406;53.380;7.226;2022-11-13T00:43:39;11.07;;;9.63;;
25497;SDS011;13406;53.380;7.226;2022-11-13T00:46:05;11.43;;;10.23;;
25497;SDS011;13406;53.380;7.226;2022-11-13T00:48:31;10.93;;;8.77;;
25497;SDS011;13406;53.380;7.226;2022-11-13T00:50:57;11.90;;;9.90;;
25497;SDS011;13406;53.380;7.226;2022-11-13T00:53:23;10.93;;;8.27;;
25497;SDS011;13406;53.380;7.226;2022-11-13T00:55:48;13.20;;;9.20;;
25497;SDS011;13406;53.380;7.226;2022-11-13T00:58:14;9.70;;;8.37;;
25497;SDS011;13406;53.380;7.226;2022-11-13T01:00:41;12.03;;;10.20;;
25497;SDS011;13406;53.380;7.226;2022-11-13T01:03:08;10.33;;;9.23;;
25497;SDS011;13406;53.380;7.226;2022-11-13T01:05:34;11.53;;;9.90;;
25497;SDS011;13406;53.380;7.226;2022-11-13T01:08:01;11.40;;;9.20;;
25497;SDS011;13406;53.380;7.226;2022-11-13T01:10:27;11.10;;;9.93;;
25497;SDS011;13406;53.380;7.226;2022-11-13T01:12:53;10.97;;;8.83;;
25497;SDS011;13406;53.380;7.226;2022-11-13T01:15:18;12.37;;;8.50;;
25497;SDS011;13406;53.380;7.226;2022-11-13T01:17:44;10.23;;;9.07;;
25497;SDS011;13406;53.380;7.226;2022-11-13T01:20:10;10.20;;;8.10;;
25497;SDS011;13406;53.380;7.226;2022-11-13T01:22:35;10.40;;;8.90;;
25497;SDS011;13406;53.380;7.226;2022-11-13T01:25:01;10.53;;;9.43;;
25497;SDS011;13406;53.380;7.226;2022-11-13T01:27:26;13.80;;;8.70;;
25497;SDS011;13406;53.380;7.226;2022-11-13T01:29:52;10.90;;;8.10;;
25497;SDS011;13406;53.380;7.226;2022-11-13T01:32:17;9.60;;;8.57;;
25497;SDS011;13406;53.380;7.226;2022-11-13T01:34:43;9.87;;;8.37;;
25497;SDS011;13406;53.380;7.226;2022-11-13T01:37:08;10.20;;;8.40;;
25497;SDS011;13406;53.380;7.226;2022-11-13T01:39:34;11.13;;;8.83;;
25497;SDS011;13406;53.380;7.226;2022-11-13T01:41:59;9.80;;;8.33;;
25497;SDS011;13406;53.380;7.226;2022-11-13T01:44:30;10.60;;;8.23;;
25497;SDS011;13406;53.380;7.226;2022-11-13T01:47:20;11.80;;;8.23;;
25497;SDS011;13406;53.380;7.226;2022-11-13T01:49:47;10.10;;;8.90;;
25497;SDS011;13406;53.380;7.226;2022-11-13T01:52:16;10.73;;;8.57;;
25497;SDS011;13406;53.380;7.226;2022-11-13T01:54:49;9.80;;;8.20;;
25497;SDS011;13406;53.380;7.226;2022-11-13T01:57:17;10.77;;;9.00;;
25497;SDS011;13406;53.380;7.226;2022-11-13T01:59:47;10.13;;;7.90;;
25497;SDS011;13406;53.380;7.226;2022-11-13T02:02:17;8.37;;;7.40;;
25497;SDS011;13406;53.380;7.226;2022-11-13T02:04:43;10.93;;;9.73;;
25497;SDS011;13406;53.380;7.226;2022-11-13T02:07:10;10.30;;;8.80;;
25497;SDS011;13406;53.380;7.226;2022-11-13T02:09:41;12.63;;;7.50;;
25497;SDS011;13406;53.380;7.226;2022-11-13T02:12:10;9.60;;;8.60;;
25497;SDS011;13406;53.380;7.226;2022-11-13T02:14:39;10.60;;;8.67;;
25497;SDS011;13406;53.380;7.226;2022-11-13T02:17:08;10.97;;;9.40;;
25497;SDS011;13406;53.380;7.226;2022-11-13T02:19:37;16.47;;;9.30;;
25497;SDS011;13406;53.380;7.226;2022-11-13T02:24:52;9.83;;;8.37;;
25497;SDS011;13406;53.380;7.226;2022-11-13T02:27:26;12.10;;;8.93;;
25497;SDS011;13406;53.380;7.226;2022-11-13T02:29:57;8.80;;;7.90;;
25497;SDS011;13406;53.380;7.226;2022-11-13T02:32:22;9.80;;;8.80;;
25497;SDS011;13406;53.380;7.226;2022-11-13T02:34:48;10.70;;;8.47;;
25497;SDS011;13406;53.380;7.226;2022-11-13T02:37:13;9.70;;;8.70;;
25497;SDS011;13406;53.380;7.226;2022-11-13T02:39:39;9.40;;;8.40;;
25497;SDS011;13406;53.380;7.226;2022-11-13T02:42:04;10.47;;;8.90;;
25497;SDS011;13406;53.380;7.226;2022-11-13T02:44:30;9.03;;;8.00;;
25497;SDS011;13406;53.380;7.226;2022-11-13T02:46:55;9.20;;;8.30;;
25497;SDS011;13406;53.380;7.226;2022-11-13T02:49:21;9.33;;;8.33;;
25497;SDS011;13406;53.380;7.226;2022-11-13T02:51:46;10.73;;;8.40;;
25497;SDS011;13406;53.380;7.226;2022-11-13T02:54:12;9.20;;;8.30;;
25497;SDS011;13406;53.380;7.226;2022-11-13T02:56:37;10.10;;;8.80;;
25497;SDS011;13406;53.380;7.226;2022-11-13T02:59:03;9.33;;;8.40;;
25497;SDS011;13406;53.380;7.226;2022-11-13T03:01:28;9.77;;;8.20;;
25497;SDS011;13406;53.380;7.226;2022-11-13T03:03:54;8.83;;;7.70;;
25497;SDS011;13406;53.380;7.226;2022-11-13T03:06:19;9.70;;;7.80;;
25497;SDS011;13406;53.380;7.226;2022-11-13T03:08:45;8.13;;;7.30;;
25497;SDS011;13406;53.380;7.226;2022-11-13T03:11:10;8.83;;;7.90;;
25497;SDS011;13406;53.380;7.226;2022-11-13T03:13:37;10.07;;;8.57;;
25497;SDS011;13406;53.380;7.226;2022-11-13T03:16:20;9.63;;;8.40;;
25497;SDS011;13406;53.380;7.226;2022-11-13T03:18:46;11.80;;;8.50;;
25497;SDS011;13406;53.380;7.226;2022-11-13T03:21:12;9.07;;;7.43;;
25497;SDS011;13406;53.380;7.226;2022-11-13T03:23:39;10.73;;;8.00;;
25497;SDS011;13406;53.380;7.226;2022-11-13T03:26:07;9.07;;;8.10;;
25497;SDS011;13406;53.380;7.226;2022-11-13T03:28:35;9.10;;;8.20;;
25497;SDS011;13406;53.380;7.226;2022-11-13T03:31:01;9.87;;;8.53;;
25497;SDS011;13406;53.380;7.226;2022-11-13T03:33:28;8.77;;;7.87;;
25497;SDS011;13406;53.380;7.226;2022-11-13T03:35:53;11.57;;;8.23;;
25497;SDS011;13406;53.380;7.226;2022-11-13T03:38:19;10.67;;;8.17;;
25497;SDS011;13406;53.380;7.226;2022-11-13T03:40:45;10.50;;;8.33;;
25497;SDS011;13406;53.380;7.226;2022-11-13T03:43:11;10.00;;;8.43;;
25497;SDS011;13406;53.380;7.226;2022-11-13T03:45:36;8.07;;;7.10;;
25497;SDS011;13406;53.380;7.226;2022-11-13T03:48:02;11.07;;;7.97;;
25497;SDS011;13406;53.380;7.226;2022-11-13T03:50:28;9.37;;;7.93;;
25497;SDS011;13406;53.380;7.226;2022-11-13T03:52:54;9.10;;;7.60;;
25497;SDS011;13406;53.380;7.226;2022-11-13T03:55:19;8.57;;;7.77;;
25497;SDS011;13406;53.380;7.226;2022-11-13T03:57:47;9.30;;;7.70;;
25497;SDS011;13406;53.380;7.226;2022-11-13T04:00:13;8.80;;;7.30;;
25497;SDS011;13406;53.380;7.226;2022-11-13T04:02:39;9.17;;;8.20;;
25497;SDS011;13406;53.380;7.226;2022-11-13T04:05:05;9.13;;;7.83;;
25497;SDS011;13406;53.380;7.226;2022-11-13T04:07:31;8.87;;;7.33;;
25497;SDS011;13406;53.380;7.226;2022-11-13T04:09:56;8.67;;;7.77;;
25497;SDS011;13406;53.380;7.226;2022-11-13T04:12:22;10.37;;;7.90;;
25497;SDS011;13406;53.380;7.226;2022-11-13T04:14:47;8.00;;;6.60;;
25497;SDS011;13406;53.380;7.226;2022-11-13T04:17:13;8.13;;;7.17;;
25497;SDS011;13406;53.380;7.226;2022-11-13T04:19:38;7.97;;;7.03;;
25497;SDS011;13406;53.380;7.226;2022-11-13T04:22:04;9.17;;;7.70;;
25497;SDS011;13406;53.380;7.226;2022-11-13T04:24:29;8.00;;;7.13;;
25497;SDS011;13406;53.380;7.226;2022-11-13T04:26:54;9.10;;;8.20;;
25497;SDS011;13406;53.380;7.226;2022-11-13T04:29:20;7.93;;;7.13;;
25497;SDS011;13406;53.380;7.226;2022-11-13T04:31:45;8.73;;;7.40;;
25497;SDS011;13406;53.380;7.226;2022-11-13T04:34:11;8.63;;;7.73;;
25497;SDS011;13406;53.380;7.226;2022-11-13T04:36:36;8.77;;;7.87;;
25497;SDS011;13406;53.380;7.226;2022-11-13T04:39:02;7.90;;;6.60;;
25497;SDS011;13406;53.380;7.226;2022-11-13T04:41:27;10.27;;;7.97;;
25497;SDS011;13406;53.380;7.226;2022-11-13T04:44:11;8.40;;;7.47;;
25497;SDS011;13406;53.380;7.226;2022-11-13T04:46:37;8.47;;;7.57;;
25497;SDS011;13406;53.380;7.226;2022-11-13T04:49:02;9.43;;;7.57;;
25497;SDS011;13406;53.380;7.226;2022-11-13T04:51:27;8.47;;;7.57;;
25497;SDS011;13406;53.380;7.226;2022-11-13T04:53:53;9.20;;;8.00;;
25497;SDS011;13406;53.380;7.226;2022-11-13T04:56:18;8.07;;;7.23;;
25497;SDS011;13406;53.380;7.226;2022-11-13T04:58:44;10.03;;;7.83;;
25497;SDS011;13406;53.380;7.226;2022-11-13T05:01:09;8.10;;;7.40;;
25497;SDS011;13406;53.380;7.226;2022-11-13T05:03:36;8.00;;;6.87;;
25497;SDS011;13406;53.380;7.226;2022-11-13T05:06:05;8.57;;;7.67;;
25497;SDS011;13406;53.380;7.226;2022-11-13T05:08:33;8.50;;;7.10;;
25497;SDS011;13406;53.380;7.226;2022-11-13T05:10:58;8.30;;;7.30;;
25497;SDS011;13406;53.380;7.226;2022-11-13T05:13:25;7.90;;;7.10;;
25497;SDS011;13406;53.380;7.226;2022-11-13T05:15:51;8.50;;;7.60;;
25497;SDS011;13406;53.380;7.226;2022-11-13T05:18:24;8.43;;;6.90;;
25497;SDS011;13406;53.380;7.226;2022-11-13T05:20:50;8.97;;;8.07;;
25497;SDS011;13406;53.380;7.226;2022-11-13T05:23:16;8.70;;;7.80;;
25497;SDS011;13406;53.380;7.226;2022-11-13T05:25:41;8.30;;;7.13;;
25497;SDS011;13406;53.380;7.226;2022-11-13T05:28:06;8.00;;;7.03;;
25497;SDS011;13406;53.380;7.226;2022-11-13T05:30:32;8.00;;;6.60;;
25497;SDS011;13406;53.380;7.226;2022-11-13T05:32:57;7.40;;;6.50;;
25497;SDS011;13406;53.380;7.226;2022-11-13T05:35:23;8.10;;;6.17;;
25497;SDS011;13406;53.380;7.226;2022-11-13T05:37:48;7.77;;;6.93;;
25497;SDS011;13406;53.380;7.226;2022-11-13T05:40:13;7.80;;;6.97;;
25497;SDS011;13406;53.380;7.226;2022-11-13T05:42:39;9.60;;;7.20;;
25497;SDS011;13406;53.380;7.226;2022-11-13T05:45:05;9.47;;;6.40;;
25497;SDS011;13406;53.380;7.226;2022-11-13T05:47:31;8.63;;;7.33;;
25497;SDS011;13406;53.380;7.226;2022-11-13T05:49:57;9.63;;;7.07;;
25497;SDS011;13406;53.380;7.226;2022-11-13T05:52:22;9.37;;;7.57;;
25497;SDS011;13406;53.380;7.226;2022-11-13T05:54:47;8.57;;;7.10;;
25497;SDS011;13406;53.380;7.226;2022-11-13T05:57:13;7.67;;;6.50;;
25497;SDS011;13406;53.380;7.226;2022-11-13T05:59:38;8.03;;;7.23;;
25497;SDS011;13406;53.380;7.226;2022-11-13T06:02:04;7.03;;;6.30;;
25497;SDS011;13406;53.380;7.226;2022-11-13T06:04:29;8.10;;;7.13;;
25497;SDS011;13406;53.380;7.226;2022-11-13T06:06:55;8.60;;;6.20;;
25497;SDS011;13406;53.380;7.226;2022-11-13T06:09:20;6.60;;;6.00;;
25497;SDS011;13406;53.380;7.226;2022-11-13T06:11:45;6.87;;;5.83;;
25497;SDS011;13406;53.380;7.226;2022-11-13T06:14:11;7.20;;;5.87;;
25497;SDS011;13406;53.380;7.226;2022-11-13T06:16:37;7.33;;;6.43;;
25497;SDS011;13406;53.380;7.226;2022-11-13T06:19:04;6.37;;;5.47;;
25497;SDS011;13406;53.380;7.226;2022-11-13T06:21:32;6.23;;;5.63;;
25497;SDS011;13406;53.380;7.226;2022-11-13T06:23:59;6.90;;;6.07;;
25497;SDS011;13406;53.380;7.226;2022-11-13T06:26:27;7.87;;;6.50;;
25497;SDS011;13406;53.380;7.226;2022-11-13T06:28:57;7.20;;;6.03;;
25497;SDS011;13406;53.380;7.226;2022-11-13T06:31:24;6.20;;;5.60;;
25497;SDS011;13406;53.380;7.226;2022-11-13T06:33:51;7.67;;;6.07;;
25497;SDS011;13406;53.380;7.226;2022-11-13T06:36:18;11.23;;;6.10;;
25497;SDS011;13406;53.380;7.226;2022-11-13T06:38:45;9.07;;;5.80;;
25497;SDS011;13406;53.380;7.226;2022-11-13T06:41:12;7.23;;;5.93;;
25497;SDS011;13406;53.380;7.226;2022-11-13T06:43:39;6.53;;;5.87;;
25497;SDS011;13406;53.380;7.226;2022-11-13T06:46:07;7.07;;;5.70;;
25497;SDS011;13406;53.380;7.226;2022-11-13T06:48:35;8.03;;;6.10;;
25497;SDS011;13406;53.380;7.226;2022-11-13T06:51:01;6.67;;;5.50;;
25497;SDS011;13406;53.380;7.226;2022-11-13T06:53:28;7.50;;;5.80;;
25497;SDS011;13406;53.380;7.226;2022-11-13T06:55:54;6.37;;;5.77;;
25497;SDS011;13406;53.380;7.226;2022-11-13T06:58:20;7.87;;;5.97;;
25497;SDS011;13406;53.380;7.226;2022-11-13T07:00:45;7.43;;;6.20;;
25497;SDS011;13406;53.380;7.226;2022-11-13T07:03:15;7.40;;;5.67;;
25497;SDS011;13406;53.380;7.226;2022-11-13T07:05:42;7.23;;;6.23;;
25497;SDS011;13406;53.380;7.226;2022-11-13T07:08:08;12.03;;;9.90;;
25497;SDS011;13406;53.380;7.226;2022-11-13T07:10:33;15.37;;;12.00;;
25497;SDS011;13406;53.380;7.226;2022-11-13T07:12:59;11.33;;;9.10;;
25497;SDS011;13406;53.380;7.226;2022-11-13T07:15:25;7.53;;;6.77;;
25497;SDS011;13406;53.380;7.226;2022-11-13T07:17:51;7.63;;;6.83;;
25497;SDS011;13406;53.380;7.226;2022-11-13T07:20:16;8.50;;;7.13;;
25497;SDS011;13406;53.380;7.226;2022-11-13T07:22:42;8.43;;;6.60;;
25497;SDS011;13406;53.380;7.226;2022-11-13T07:25:07;6.13;;;5.40;;
25497;SDS011;13406;53.380;7.226;2022-11-13T07:27:33;10.50;;;8.20;;
25497;SDS011;13406;53.380;7.226;2022-11-13T07:29:58;13.97;;;11.83;;
25497;SDS011;13406;53.380;7.226;2022-11-13T07:32:24;11.10;;;7.80;;
25497;SDS011;13406;53.380;7.226;2022-11-13T07:34:50;9.27;;;6.93;;
25497;SDS011;13406;53.380;7.226;2022-11-13T07:37:15;8.63;;;6.20;;
25497;SDS011;13406;53.380;7.226;2022-11-13T07:39:40;8.20;;;7.03;;
25497;SDS011;13406;53.380;7.226;2022-11-13T07:42:06;9.30;;;6.97;;
25497;SDS011;13406;53.380;7.226;2022-11-13T07:44:31;6.07;;;5.47;;
25497;SDS011;13406;53.380;7.226;2022-11-13T07:46:57;7.17;;;6.00;;
25497;SDS011;13406;53.380;7.226;2022-11-13T07:49:22;6.87;;;6.17;;
25497;SDS011;13406;53.380;7.226;2022-11-13T07:51:48;11.23;;;6.70;;
25497;SDS011;13406;53.380;7.226;2022-11-13T07:54:13;9.13;;;6.43;;
25497;SDS011;13406;53.380;7.226;2022-11-13T07:56:38;10.30;;;6.83;;
25497;SDS011;13406;53.380;7.226;2022-11-13T07:59:04;10.20;;;6.43;;
25497;SDS011;13406;53.380;7.226;2022-11-13T08:01:29;8.00;;;7.20;;
25497;SDS011;13406;53.380;7.226;2022-11-13T08:03:55;10.13;;;7.80;;
25497;SDS011;13406;53.380;7.226;2022-11-13T08:06:20;8.40;;;7.50;;
25497;SDS011;13406;53.380;7.226;2022-11-13T08:08:48;8.37;;;7.53;;
25497;SDS011;13406;53.380;7.226;2022-11-13T08:11:13;10.30;;;7.90;;
25497;SDS011;13406;53.380;7.226;2022-11-13T08:13:39;11.20;;;8.10;;
25497;SDS011;13406;53.380;7.226;2022-11-13T08:16:05;9.00;;;7.97;;
25497;SDS011;13406;53.380;7.226;2022-11-13T08:18:30;9.23;;;7.80;;
25497;SDS011;13406;53.380;7.226;2022-11-13T08:20:56;8.67;;;7.23;;
25497;SDS011;13406;53.380;7.226;2022-11-13T08:23:24;7.67;;;6.87;;
25497;SDS011;13406;53.380;7.226;2022-11-13T08:25:49;8.63;;;7.50;;
25497;SDS011;13406;53.380;7.226;2022-11-13T08:28:15;9.10;;;7.90;;
25497;SDS011;13406;53.380;7.226;2022-11-13T08:30:42;11.40;;;7.50;;
25497;SDS011;13406;53.380;7.226;2022-11-13T08:33:08;11.00;;;7.10;;
25497;SDS011;13406;53.380;7.226;2022-11-13T08:35:33;9.30;;;6.90;;
25497;SDS011;13406;53.380;7.226;2022-11-13T08:38:06;7.20;;;6.27;;
25497;SDS011;13406;53.380;7.226;2022-11-13T08:40:33;8.63;;;6.73;;
25497;SDS011;13406;53.380;7.226;2022-11-13T08:43:00;7.97;;;7.17;;
25497;SDS011;13406;53.380;7.226;2022-11-13T08:45:28;9.20;;;7.50;;
25497;SDS011;13406;53.380;7.226;2022-11-13T08:48:03;10.10;;;7.10;;
25497;SDS011;13406;53.380;7.226;2022-11-13T08:50:29;7.63;;;6.50;;
25497;SDS011;13406;53.380;7.226;2022-11-13T08:52:56;7.73;;;6.93;;
25497;SDS011;13406;53.380;7.226;2022-11-13T08:55:23;7.90;;;7.10;;
25497;SDS011;13406;53.380;7.226;2022-11-13T08:57:50;8.80;;;7.27;;
25497;SDS011;13406;53.380;7.226;2022-11-13T09:00:16;11.30;;;8.30;;
25497;SDS011;13406;53.380;7.226;2022-11-13T09:02:42;9.20;;;8.17;;
25497;SDS011;13406;53.380;7.226;2022-11-13T09:05:08;9.80;;;8.20;;
25497;SDS011;13406;53.380;7.226;2022-11-13T09:07:34;10.50;;;8.43;;
25497;SDS011;13406;53.380;7.226;2022-11-13T09:09:59;7.93;;;7.13;;
25497;SDS011;13406;53.380;7.226;2022-11-13T09:12:25;8.80;;;7.53;;
25497;SDS011;13406;53.380;7.226;2022-11-13T09:14:50;10.90;;;7.90;;
25497;SDS011;13406;53.380;7.226;2022-11-13T09:17:16;32.87;;;15.63;;
25497;SDS011;13406;53.380;7.226;2022-11-13T09:19:42;16.67;;;12.37;;
25497;SDS011;13406;53.380;7.226;2022-11-13T09:22:08;10.80;;;9.40;;
25497;SDS011;13406;53.380;7.226;2022-11-13T09:24:34;11.17;;;9.47;;
25497;SDS011;13406;53.380;7.226;2022-11-13T09:27:00;12.63;;;8.93;;
25497;SDS011;13406;53.380;7.226;2022-11-13T09:29:26;11.73;;;8.50;;
25497;SDS011;13406;53.380;7.226;2022-11-13T09:31:53;11.37;;;8.50;;
25497;SDS011;13406;53.380;7.226;2022-11-13T09:34:19;10.90;;;8.73;;
25497;SDS011;13406;53.380;7.226;2022-11-13T09:36:45;9.37;;;8.40;;
25497;SDS011;13406;53.380;7.226;2022-11-13T09:39:10;13.13;;;8.80;;
25497;SDS011;13406;53.380;7.226;2022-11-13T09:41:36;9.47;;;8.10;;
25497;SDS011;13406;53.380;7.226;2022-11-13T09:44:10;11.10;;;9.10;;
25497;SDS011;13406;53.380;7.226;2022-11-13T09:46:51;14.27;;;10.20;;
25497;SDS011;13406;53.380;7.226;2022-11-13T09:49:33;10.67;;;8.70;;
25497;SDS011;13406;53.380;7.226;2022-11-13T09:52:02;9.80;;;8.60;;
25497;SDS011;13406;53.380;7.226;2022-11-13T09:54:35;10.83;;;8.23;;
25497;SDS011;13406;53.380;7.226;2022-11-13T10:00:02;11.70;;;8.90;;
25497;SDS011;13406;53.380;7.226;2022-11-13T10:05:22;11.63;;;8.57;;
25497;SDS011;13406;53.380;7.226;2022-11-13T10:08:03;11.40;;;9.20;;
25497;SDS011;13406;53.380;7.226;2022-11-13T10:13:24;10.80;;;9.10;;
25497;SDS011;13406;53.380;7.226;2022-11-13T10:16:01;12.13;;;8.73;;
25497;SDS011;13406;53.380;7.226;2022-11-13T10:18:34;12.07;;;9.10;;
25497;SDS011;13406;53.380;7.226;2022-11-13T10:21:11;9.80;;;8.57;;
25497;SDS011;13406;53.380;7.226;2022-11-13T10:23:46;10.90;;;8.43;;
25497;SDS011;13406;53.380;7.226;2022-11-13T10:26:19;11.67;;;8.50;;
25497;SDS011;13406;53.380;7.226;2022-11-13T10:28:46;10.37;;;8.80;;
25497;SDS011;13406;53.380;7.226;2022-11-13T10:31:45;10.00;;;9.00;;
25497;SDS011;13406;53.380;7.226;2022-11-13T10:34:13;11.40;;;9.17;;
25497;SDS011;13406;53.380;7.226;2022-11-13T10:39:44;12.30;;;9.47;;
25497;SDS011;13406;53.380;7.226;2022-11-13T10:42:22;9.60;;;8.60;;
25497;SDS011;13406;53.380;7.226;2022-11-13T10:44:57;10.37;;;9.03;;
25497;SDS011;13406;53.380;7.226;2022-11-13T10:47:25;8.80;;;7.90;;
25497;SDS011;13406;53.380;7.226;2022-11-13T10:49:53;10.40;;;8.77;;
25497;SDS011;13406;53.380;7.226;2022-11-13T10:52:21;8.90;;;7.73;;
25497;SDS011;13406;53.380;7.226;2022-11-13T10:54:49;9.90;;;8.47;;
25497;SDS011;13406;53.380;7.226;2022-11-13T10:57:21;9.60;;;8.07;;
25497;SDS011;13406;53.380;7.226;2022-11-13T10:59:52;12.03;;;8.23;;
25497;SDS011;13406;53.380;7.226;2022-11-13T11:02:18;9.87;;;7.50;;
25497;SDS011;13406;53.380;7.226;2022-11-13T11:04:46;9.80;;;8.80;;
25497;SDS011;13406;53.380;7.226;2022-11-13T11:07:19;9.30;;;7.43;;
25497;SDS011;13406;53.380;7.226;2022-11-13T11:09:47;9.20;;;8.23;;
25497;SDS011;13406;53.380;7.226;2022-11-13T11:12:21;11.60;;;7.70;;
25497;SDS011;13406;53.380;7.226;2022-11-13T11:17:24;9.80;;;8.17;;
25497;SDS011;13406;53.380;7.226;2022-11-13T11:20:00;10.03;;;7.40;;
25497;SDS011;13406;53.380;7.226;2022-11-13T11:22:32;8.47;;;7.60;;
25497;SDS011;13406;53.380;7.226;2022-11-13T11:25:44;10.73;;;7.97;;
25497;SDS011;13406;53.380;7.226;2022-11-13T11:28:31;9.80;;;7.77;;
25497;SDS011;13406;53.380;7.226;2022-11-13T11:30:48;11.07;;;8.00;;
25497;SDS011;13406;53.380;7.226;2022-11-13T11:33:38;11.20;;;8.20;;
25497;SDS011;13406;53.380;7.226;2022-11-13T11:36:16;8.50;;;6.83;;
25497;SDS011;13406;53.380;7.226;2022-11-13T11:38:54;7.87;;;7.07;;
25497;SDS011;13406;53.380;7.226;2022-11-13T11:41:26;10.23;;;7.27;;
25497;SDS011;13406;53.380;7.226;2022-11-13T11:44:04;9.70;;;8.07;;
25497;SDS011;13406;53.380;7.226;2022-11-13T11:46:39;10.83;;;8.00;;
25497;SDS011;13406;53.380;7.226;2022-11-13T11:49:07;8.10;;;7.27;;
25497;SDS011;13406;53.380;7.226;2022-11-13T11:51:38;8.73;;;7.93;;
25497;SDS011;13406;53.380;7.226;2022-11-13T11:54:39;9.23;;;7.97;;
25497;SDS011;13406;53.380;7.226;2022-11-13T12:10:59;8.17;;;6.90;;
25497;SDS011;13406;53.380;7.226;2022-11-13T12:14:03;9.00;;;6.97;;
25497;SDS011;13406;53.380;7.226;2022-11-13T12:20:00;9.23;;;7.47;;
25497;SDS011;13406;53.380;7.226;2022-11-13T12:22:48;8.87;;;7.20;;
25497;SDS011;13406;53.380;7.226;2022-11-13T12:28:44;8.60;;;7.20;;
25497;SDS011;13406;53.380;7.226;2022-11-13T12:36:52;7.90;;;6.90;;
25497;SDS011;13406;53.380;7.226;2022-11-13T12:39:32;7.70;;;6.90;;
25497;SDS011;13406;53.380;7.226;2022-11-13T12:45:08;8.70;;;7.30;;
25497;SDS011;13406;53.380;7.226;2022-11-13T12:47:39;9.00;;;7.83;;
25497;SDS011;13406;53.380;7.226;2022-11-13T12:52:58;8.30;;;7.37;;
25497;SDS011;13406;53.380;7.226;2022-11-13T12:55:30;8.67;;;7.63;;
25497;SDS011;13406;53.380;7.226;2022-11-13T12:58:06;7.80;;;6.83;;
25497;SDS011;13406;53.380;7.226;2022-11-13T13:01:00;8.73;;;7.00;;
25497;SDS011;13406;53.380;7.226;2022-11-13T13:09:19;8.50;;;6.83;;
25497;SDS011;13406;53.380;7.226;2022-11-13T13:11:54;8.07;;;7.27;;
25497;SDS011;13406;53.380;7.226;2022-11-13T13:14:33;7.93;;;7.13;;
25497;SDS011;13406;53.380;7.226;2022-11-13T13:19:38;8.33;;;7.17;;
25497;SDS011;13406;53.380;7.226;2022-11-13T13:22:07;8.57;;;7.00;;
25497;SDS011;13406;53.380;7.226;2022-11-13T13:24:35;8.07;;;6.47;;
25497;SDS011;13406;53.380;7.226;2022-11-13T13:27:19;9.70;;;7.00;;
25497;SDS011;13406;53.380;7.226;2022-11-13T13:29:48;8.70;;;7.30;;
25497;SDS011;13406;53.380;7.226;2022-11-13T13:32:20;7.63;;;6.63;;
25497;SDS011;13406;53.380;7.226;2022-11-13T13:48:35;7.47;;;6.67;;
25497;SDS011;13406;53.380;7.226;2022-11-13T13:51:03;13.40;;;7.47;;
25497;SDS011;13406;53.380;7.226;2022-11-13T13:53:44;7.77;;;6.70;;
25497;SDS011;13406;53.380;7.226;2022-11-13T13:56:11;8.40;;;6.97;;
25497;SDS011;13406;53.380;7.226;2022-11-13T13:58:38;10.17;;;7.10;;
25497;SDS011;13406;53.380;7.226;2022-11-13T14:01:04;7.77;;;7.07;;
25497;SDS011;13406;53.380;7.226;2022-11-13T14:03:36;8.03;;;6.60;;
25497;SDS011;13406;53.380;7.226;2022-11-13T14:06:21;9.30;;;8.30;;
25497;SDS011;13406;53.380;7.226;2022-11-13T14:08:48;7.93;;;7.10;;
25497;SDS011;13406;53.380;7.226;2022-11-13T14:11:18;8.23;;;7.00;;
25497;SDS011;13406;53.380;7.226;2022-11-13T14:13:53;7.60;;;6.90;;
25497;SDS011;13406;53.380;7.226;2022-11-13T14:16:20;8.30;;;7.40;;
25497;SDS011;13406;53.380;7.226;2022-11-13T14:18:45;8.40;;;7.03;;
25497;SDS011;13406;53.380;7.226;2022-11-13T14:21:12;8.23;;;7.13;;
25497;SDS011;13406;53.380;7.226;2022-11-13T14:23:47;9.00;;;6.77;;
25497;SDS011;13406;53.380;7.226;2022-11-13T14:26:15;9.30;;;7.30;;
25497;SDS011;13406;53.380;7.226;2022-11-13T14:31:11;9.30;;;7.37;;
25497;SDS011;13406;53.380;7.226;2022-11-13T14:33:42;7.83;;;7.00;;
25497;SDS011;13406;53.380;7.226;2022-11-13T14:36:10;8.67;;;7.53;;
25497;SDS011;13406;53.380;7.226;2022-11-13T14:38:39;9.63;;;7.73;;
25497;SDS011;13406;53.380;7.226;2022-11-13T14:41:06;13.67;;;8.37;;
25497;SDS011;13406;53.380;7.226;2022-11-13T14:43:47;8.23;;;7.30;;
25497;SDS011;13406;53.380;7.226;2022-11-13T14:46:25;7.97;;;7.13;;
25497;SDS011;13406;53.380;7.226;2022-11-13T14:49:24;10.00;;;8.60;;
25497;SDS011;13406;53.380;7.226;2022-11-13T14:51:54;9.30;;;7.80;;
25497;SDS011;13406;53.380;7.226;2022-11-13T14:54:35;9.43;;;8.30;;
25497;SDS011;13406;53.380;7.226;2022-11-13T14:57:13;10.63;;;8.23;;
25497;SDS011;13406;53.380;7.226;2022-11-13T14:59:40;9.20;;;8.30;;
25497;SDS011;13406;53.380;7.226;2022-11-13T15:02:11;11.27;;;8.60;;
25497;SDS011;13406;53.380;7.226;2022-11-13T15:04:37;9.13;;;8.17;;
25497;SDS011;13406;53.380;7.226;2022-11-13T15:07:17;10.93;;;8.93;;
25497;SDS011;13406;53.380;7.226;2022-11-13T15:09:45;10.37;;;8.07;;
25497;SDS011;13406;53.380;7.226;2022-11-13T15:12:11;10.43;;;8.33;;
25497;SDS011;13406;53.380;7.226;2022-11-13T15:14:37;9.70;;;8.23;;
25497;SDS011;13406;53.380;7.226;2022-11-13T15:17:06;11.03;;;8.63;;
25497;SDS011;13406;53.380;7.226;2022-11-13T15:19:39;11.80;;;9.77;;
25497;SDS011;13406;53.380;7.226;2022-11-13T15:22:08;11.30;;;9.40;;
25497;SDS011;13406;53.380;7.226;2022-11-13T15:24:35;9.90;;;8.90;;
25497;SDS011;13406;53.380;7.226;2022-11-13T15:27:00;10.63;;;9.10;;
25497;SDS011;13406;53.380;7.226;2022-11-13T15:29:26;12.60;;;9.90;;
25497;SDS011;13406;53.380;7.226;2022-11-13T15:31:51;10.50;;;9.03;;
25497;SDS011;13406;53.380;7.226;2022-11-13T15:34:17;13.40;;;9.07;;
25497;SDS011;13406;53.380;7.226;2022-11-13T15:36:42;10.03;;;9.00;;
25497;SDS011;13406;53.380;7.226;2022-11-13T15:39:10;11.17;;;9.40;;
25497;SDS011;13406;53.380;7.226;2022-11-13T15:41:36;10.30;;;9.03;;
25497;SDS011;13406;53.380;7.226;2022-11-13T15:44:02;10.83;;;9.00;;
25497;SDS011;13406;53.380;7.226;2022-11-13T15:46:33;12.30;;;9.57;;
25497;SDS011;13406;53.380;7.226;2022-11-13T15:48:59;9.90;;;8.60;;
25497;SDS011;13406;53.380;7.226;2022-11-13T15:51:27;11.70;;;8.90;;
25497;SDS011;13406;53.380;7.226;2022-11-13T15:56:41;11.83;;;8.87;;
25497;SDS011;13406;53.380;7.226;2022-11-13T15:59:11;11.30;;;8.80;;
25497;SDS011;13406;53.380;7.226;2022-11-13T16:01:37;12.50;;;8.47;;
25497;SDS011;13406;53.380;7.226;2022-11-13T16:04:03;12.13;;;8.57;;
25497;SDS011;13406;53.380;7.226;2022-11-13T16:06:30;11.30;;;9.00;;